sensor_id;sensor_type;location;lat;lon;timestamp;pressure;altitude;pressure_sealevel;temperature;humidity
3142;BME280;1581;51.568;6.998;2023-08-06T00:00:26;99796.25;;;18.62;100.00
3142;BME280;1581;51.568;6.998;2023-08-06T00:02:54;99788.41;;;18.61;100.00
3142;BME280;1581;51.568;6.998;2023-08-06T00:05:21;99780.56;;;18.59;100.00
3142;BME280;1581;51.568;6.998;2023-08-06T00:07:50;99787.81;;;18.54;100.00
3142;BME280;1581;51.568;6.998;2023-08-06T00:10:18;99792.41;;;18.53;100.00
3142;BME280;1581;51.568;6.998;2023-08-06T00:12:45;99797.81;;;18.53;100.00
3142;BME280;1581;51.568;6.998;2023-08-06T00:15:13;99788.91;;;18.53;100.00
3142;BME280;1581;51.568;6.998;2023-08-06T00:17:42;99784.59;;;18.57;100.00
3142;BME280;1581;51.568;6.998;2023-08-06T00:20:11;99772.19;;;18.56;100.00
3142;BME280;1581;51.568;6.998;2023-08-06T00:22:38;99776.75;;;18.50;100.00
3142;BME280;1581;51.568;6.998;2023-08-06T00:25:07;99770.56;;;18.50;100.00
3142;BME280;1581;51.568;6.998;2023-08-06T00:27:35;99776.22;;;18.53;100.00
3142;BME280;1581;51.568;6.998;2023-08-06T00:30:04;99766.25;;;18.54;100.00
3142;BME280;1581;51.568;6.998;2023-08-06T00:32:32;99762.69;;;18.48;100.00
3142;BME280;1581;51.568;6.998;2023-08-06T00:35:01;99766.78;;;18.51;100.00
3142;BME280;1581;51.568;6.998;2023-08-06T00:37:29;99767.88;;;18.55;100.00
3142;BME280;1581;51.568;6.998;2023-08-06T00:39:57;99766.78;;;18.56;100.00
3142;BME280;1581;51.568;6.998;2023-08-06T00:42:24;99762.97;;;18.52;100.00
3142;BME280;1581;51.568;6.998;2023-08-06T00:44:52;99759.72;;;18.45;100.00
3142;BME280;1581;51.568;6.998;2023-08-06T00:47:19;99759.16;;;18.43;100.00
3142;BME280;1581;51.568;6.998;2023-08-06T00:49:47;99759.72;;;18.45;100.00
3142;BME280;1581;51.568;6.998;2023-08-06T00:52:16;99757.53;;;18.42;100.00
3142;BME280;1581;51.568;6.998;2023-08-06T00:54:44;99757.31;;;18.43;100.00
3142;BME280;1581;51.568;6.998;2023-08-06T00:57:12;99751.91;;;18.43;100.00
3142;BME280;1581;51.568;6.998;2023-08-06T00:59:39;99749.19;;;18.43;100.00
3142;BME280;1581;51.568;6.998;2023-08-06T01:02:07;99748.66;;;18.36;100.00
3142;BME280;1581;51.568;6.998;2023-08-06T01:04:35;99755.38;;;18.39;100.00
3142;BME280;1581;51.568;6.998;2023-08-06T01:07:12;99745.41;;;18.39;100.00
3142;BME280;1581;51.568;6.998;2023-08-06T01:09:57;99737.28;;;18.34;100.00
3142;BME280;1581;51.568;6.998;2023-08-06T01:12:40;99738.09;;;18.35;100.00
3142;BME280;1581;51.568;6.998;2023-08-06T01:15:15;99732.16;;;18.33;100.00
3142;BME280;1581;51.568;6.998;2023-08-06T01:17:46;99737.03;;;18.36;100.00
3142;BME280;1581;51.568;6.998;2023-08-06T01:20:13;99728.38;;;18.34;100.00
3142;BME280;1581;51.568;6.998;2023-08-06T01:22:42;99729.19;;;18.34;100.00
3142;BME280;1581;51.568;6.998;2023-08-06T01:25:10;99728.38;;;18.34;100.00
3142;BME280;1581;51.568;6.998;2023-08-06T01:27:47;99730.00;;;18.35;100.00
3142;BME280;1581;51.568;6.998;2023-08-06T01:30:19;99726.75;;;18.33;100.00
3142;BME280;1581;51.568;6.998;2023-08-06T01:32:53;99722.97;;;18.29;100.00
3142;BME280;1581;51.568;6.998;2023-08-06T01:35:22;99729.75;;;18.36;100.00
3142;BME280;1581;51.568;6.998;2023-08-06T01:37:51;99732.69;;;18.35;100.00
3142;BME280;1581;51.568;6.998;2023-08-06T01:40:19;99726.78;;;18.38;100.00
3142;BME280;1581;51.568;6.998;2023-08-06T01:42:47;99716.78;;;18.38;100.00
3142;BME280;1581;51.568;6.998;2023-08-06T01:45:14;99723.53;;;18.36;100.00
3142;BME280;1581;51.568;6.998;2023-08-06T01:47:42;99713.53;;;18.31;100.00
3142;BME280;1581;51.568;6.998;2023-08-06T01:50:10;99720.84;;;18.31;100.00
3142;BME280;1581;51.568;6.998;2023-08-06T01:52:38;99725.69;;;18.34;100.00
3142;BME280;1581;51.568;6.998;2023-08-06T01:55:07;99708.44;;;18.35;100.00
3142;BME280;1581;51.568;6.998;2023-08-06T01:57:35;99705.47;;;18.36;100.00
3142;BME280;1581;51.568;6.998;2023-08-06T02:00:03;99701.41;;;18.34;100.00
3142;BME280;1581;51.568;6.998;2023-08-06T02:02:31;99707.59;;;18.29;100.00
3142;BME280;1581;51.568;6.998;2023-08-06T02:05:00;99707.88;;;18.33;100.00
3142;BME280;1581;51.568;6.998;2023-08-06T02:07:27;99702.47;;;18.33;100.00
3142;BME280;1581;51.568;6.998;2023-08-06T02:09:55;99700.59;;;18.33;100.00
3142;BME280;1581;51.568;6.998;2023-08-06T02:12:24;99701.69;;;18.32;100.00
3142;BME280;1581;51.568;6.998;2023-08-06T02:14:51;99695.78;;;18.35;100.00
3142;BME280;1581;51.568;6.998;2023-08-06T02:17:19;99703.59;;;18.37;100.00
3142;BME280;1581;51.568;6.998;2023-08-06T02:19:47;99704.94;;;18.39;100.00
3142;BME280;1581;51.568;6.998;2023-08-06T02:22:14;99701.97;;;18.36;100.00
3142;BME280;1581;51.568;6.998;2023-08-06T02:24:42;99699.81;;;18.38;100.00
3142;BME280;1581;51.568;6.998;2023-08-06T02:27:10;99696.00;;;18.34;100.00
3142;BME280;1581;51.568;6.998;2023-08-06T02:29:40;99693.88;;;18.36;100.00
3142;BME280;1581;51.568;6.998;2023-08-06T02:32:08;99687.63;;;18.30;100.00
3142;BME280;1581;51.568;6.998;2023-08-06T02:34:36;99697.63;;;18.35;100.00
3142;BME280;1581;51.568;6.998;2023-08-06T02:37:04;99694.66;;;18.31;100.00
3142;BME280;1581;51.568;6.998;2023-08-06T02:39:32;99693.31;;;18.29;100.00
3142;BME280;1581;51.568;6.998;2023-08-06T02:42:02;99690.88;;;18.32;100.00
3142;BME280;1581;51.568;6.998;2023-08-06T02:44:29;99686.03;;;18.34;100.00
3142;BME280;1581;51.568;6.998;2023-08-06T02:46:58;99684.41;;;18.33;100.00
3142;BME280;1581;51.568;6.998;2023-08-06T02:49:26;99688.75;;;18.34;100.00
3142;BME280;1581;51.568;6.998;2023-08-06T02:51:54;99677.13;;;18.34;100.00
3142;BME280;1581;51.568;6.998;2023-08-06T02:54:22;99674.44;;;18.29;100.00
3142;BME280;1581;51.568;6.998;2023-08-06T02:56:49;99680.38;;;18.31;100.00
3142;BME280;1581;51.568;6.998;2023-08-06T02:59:17;99673.09;;;18.31;100.00
3142;BME280;1581;51.568;6.998;2023-08-06T03:01:45;99660.13;;;18.28;100.00
3142;BME280;1581;51.568;6.998;2023-08-06T03:04:14;99664.44;;;18.24;100.00
3142;BME280;1581;51.568;6.998;2023-08-06T03:06:43;99656.63;;;18.28;100.00
3142;BME280;1581;51.568;6.998;2023-08-06T03:09:11;99646.63;;;18.28;100.00
3142;BME280;1581;51.568;6.998;2023-08-06T03:11:38;99655.50;;;18.24;100.00
3142;BME280;1581;51.568;6.998;2023-08-06T03:14:06;99656.03;;;18.21;100.00
3142;BME280;1581;51.568;6.998;2023-08-06T03:16:34;99650.41;;;18.22;100.00
3142;BME280;1581;51.568;6.998;2023-08-06T03:19:01;99654.44;;;18.25;100.00
3142;BME280;1581;51.568;6.998;2023-08-06T03:21:31;99644.41;;;18.15;100.00
3142;BME280;1581;51.568;6.998;2023-08-06T03:23:58;99647.38;;;18.19;100.00
3142;BME280;1581;51.568;6.998;2023-08-06T03:26:26;99653.81;;;18.13;100.00
3142;BME280;1581;51.568;6.998;2023-08-06T03:28:53;99647.13;;;18.20;100.00
3142;BME280;1581;51.568;6.998;2023-08-06T03:31:21;99651.13;;;18.13;100.00
3142;BME280;1581;51.568;6.998;2023-08-06T03:33:49;99646.28;;;18.10;100.00
3142;BME280;1581;51.568;6.998;2023-08-06T03:36:17;99644.63;;;18.04;100.00
3142;BME280;1581;51.568;6.998;2023-08-06T03:38:48;99641.91;;;18.04;100.00
3142;BME280;1581;51.568;6.998;2023-08-06T03:41:20;99646.25;;;18.05;100.00
3142;BME280;1581;51.568;6.998;2023-08-06T03:43:50;99643.25;;;18.02;100.00
3142;BME280;1581;51.568;6.998;2023-08-06T03:46:19;99640.00;;;18.00;100.00
3142;BME280;1581;51.568;6.998;2023-08-06T03:48:49;99647.25;;;17.94;100.00
3142;BME280;1581;51.568;6.998;2023-08-06T03:51:19;99647.25;;;17.94;100.00
3142;BME280;1581;51.568;6.998;2023-08-06T03:53:49;99647.81;;;17.91;100.00
3142;BME280;1581;51.568;6.998;2023-08-06T03:56:18;99642.94;;;17.88;100.00
3142;BME280;1581;51.568;6.998;2023-08-06T03:58:46;99641.03;;;17.89;100.00
3142;BME280;1581;51.568;6.998;2023-08-06T04:01:13;99640.75;;;17.85;100.00
3142;BME280;1581;51.568;6.998;2023-08-06T04:03:41;99643.19;;;17.87;100.00
3142;BME280;1581;51.568;6.998;2023-08-06T04:06:09;99637.50;;;17.83;100.00
3142;BME280;1581;51.568;6.998;2023-08-06T04:08:37;99642.03;;;17.78;100.00
3142;BME280;1581;51.568;6.998;2023-08-06T04:11:07;99635.84;;;17.77;100.00
3142;BME280;1581;51.568;6.998;2023-08-06T04:13:35;99640.41;;;17.77;100.00
3142;BME280;1581;51.568;6.998;2023-08-06T04:16:03;99635.28;;;17.70;100.00
3142;BME280;1581;51.568;6.998;2023-08-06T04:18:31;99643.91;;;17.72;100.00
3142;BME280;1581;51.568;6.998;2023-08-06T04:20:59;99636.91;;;17.71;100.00
3142;BME280;1581;51.568;6.998;2023-08-06T04:23:28;99644.97;;;17.66;100.00
3142;BME280;1581;51.568;6.998;2023-08-06T04:25:57;99640.91;;;17.69;100.00
3142;BME280;1581;51.568;6.998;2023-08-06T04:28:26;99638.50;;;17.72;100.00
3142;BME280;1581;51.568;6.998;2023-08-06T04:30:54;99632.28;;;17.67;100.00
3142;BME280;1581;51.568;6.998;2023-08-06T04:33:22;99641.53;;;17.76;100.00
3142;BME280;1581;51.568;6.998;2023-08-06T04:35:54;99644.22;;;17.76;100.00
3142;BME280;1581;51.568;6.998;2023-08-06T04:38:24;99645.00;;;17.71;100.00
3142;BME280;1581;51.568;6.998;2023-08-06T04:40:52;99639.56;;;17.66;100.00
3142;BME280;1581;51.568;6.998;2023-08-06T04:43:20;99635.56;;;17.74;100.00
3142;BME280;1581;51.568;6.998;2023-08-06T04:45:49;99642.38;;;17.81;100.00
3142;BME280;1581;51.568;6.998;2023-08-06T04:48:17;99639.69;;;17.86;100.00
3142;BME280;1581;51.568;6.998;2023-08-06T04:50:45;99639.97;;;17.90;100.00
3142;BME280;1581;51.568;6.998;2023-08-06T04:53:14;99637.81;;;17.92;100.00
3142;BME280;1581;51.568;6.998;2023-08-06T04:55:42;99632.16;;;17.93;100.00
3142;BME280;1581;51.568;6.998;2023-08-06T04:58:10;99628.63;;;17.88;100.00
3142;BME280;1581;51.568;6.998;2023-08-06T05:00:38;99641.88;;;17.94;100.00
3142;BME280;1581;51.568;6.998;2023-08-06T05:03:07;99634.84;;;17.93;100.00
3142;BME280;1581;51.568;6.998;2023-08-06T05:05:35;99642.16;;;17.98;100.00
3142;BME280;1581;51.568;6.998;2023-08-06T05:08:03;99646.75;;;18.02;100.00
3142;BME280;1581;51.568;6.998;2023-08-06T05:10:30;99643.03;;;18.13;100.00
3142;BME280;1581;51.568;6.998;2023-08-06T05:12:59;99645.00;;;18.22;100.00
3142;BME280;1581;51.568;6.998;2023-08-06T05:15:27;99641.00;;;18.35;100.00
3142;BME280;1581;51.568;6.998;2023-08-06T05:17:55;99649.13;;;18.40;100.00
3142;BME280;1581;51.568;6.998;2023-08-06T05:20:24;99649.66;;;18.52;100.00
3142;BME280;1581;51.568;6.998;2023-08-06T05:22:51;99651.31;;;18.58;100.00
3142;BME280;1581;51.568;6.998;2023-08-06T05:25:20;99657.25;;;18.60;100.00
3142;BME280;1581;51.568;6.998;2023-08-06T05:27:47;99660.47;;;18.62;100.00
3142;BME280;1581;51.568;6.998;2023-08-06T05:30:15;99665.09;;;18.61;100.00
3142;BME280;1581;51.568;6.998;2023-08-06T05:32:43;99664.56;;;18.64;100.00
3142;BME280;1581;51.568;6.998;2023-08-06T05:35:10;99666.72;;;18.62;100.00
3142;BME280;1581;51.568;6.998;2023-08-06T05:37:39;99665.34;;;18.65;100.00
3142;BME280;1581;51.568;6.998;2023-08-06T05:40:08;99673.72;;;18.63;100.00
3142;BME280;1581;51.568;6.998;2023-08-06T05:42:36;99668.34;;;18.63;100.00
3142;BME280;1581;51.568;6.998;2023-08-06T05:45:05;99670.22;;;18.68;100.00
3142;BME280;1581;51.568;6.998;2023-08-06T05:47:33;99677.25;;;18.69;100.00
3142;BME280;1581;51.568;6.998;2023-08-06T05:50:00;99680.47;;;18.66;100.00
3142;BME280;1581;51.568;6.998;2023-08-06T05:52:28;99676.97;;;18.70;100.00
3142;BME280;1581;51.568;6.998;2023-08-06T05:54:57;99678.88;;;18.75;100.00
3142;BME280;1581;51.568;6.998;2023-08-06T05:57:24;99677.00;;;18.80;100.00
3142;BME280;1581;51.568;6.998;2023-08-06T05:59:52;99675.13;;;18.81;100.00
3142;BME280;1581;51.568;6.998;2023-08-06T06:02:20;99669.72;;;18.81;100.00
3142;BME280;1581;51.568;6.998;2023-08-06T06:04:48;99683.47;;;18.79;100.00
3142;BME280;1581;51.568;6.998;2023-08-06T06:07:15;99683.22;;;18.86;100.00
3142;BME280;1581;51.568;6.998;2023-08-06T06:09:43;99690.78;;;18.89;100.00
3142;BME280;1581;51.568;6.998;2023-08-06T06:12:13;99692.16;;;18.96;100.00
3142;BME280;1581;51.568;6.998;2023-08-06T06:14:41;99694.03;;;18.96;100.00
3142;BME280;1581;51.568;6.998;2023-08-06T06:17:09;99694.03;;;18.96;100.00
3142;BME280;1581;51.568;6.998;2023-08-06T06:19:37;99691.91;;;19.07;100.00
3142;BME280;1581;51.568;6.998;2023-08-06T06:22:04;99696.25;;;19.13;100.00
3142;BME280;1581;51.568;6.998;2023-08-06T06:24:32;99699.22;;;19.17;100.00
3142;BME280;1581;51.568;6.998;2023-08-06T06:27:00;99702.47;;;19.19;100.00
3142;BME280;1581;51.568;6.998;2023-08-06T06:29:29;99703.03;;;19.26;100.00
3142;BME280;1581;51.568;6.998;2023-08-06T06:31:57;99700.59;;;19.29;100.00
3142;BME280;1581;51.568;6.998;2023-08-06T06:34:24;99701.69;;;19.28;100.00
3142;BME280;1581;51.568;6.998;2023-08-06T06:36:52;99704.91;;;19.30;100.00
3142;BME280;1581;51.568;6.998;2023-08-06T06:39:20;99703.56;;;19.33;100.00
3142;BME280;1581;51.568;6.998;2023-08-06T06:41:48;99707.34;;;19.32;100.00
3142;BME280;1581;51.568;6.998;2023-08-06T06:44:16;99709.25;;;19.31;100.00
3142;BME280;1581;51.568;6.998;2023-08-06T06:46:47;99711.38;;;19.24;100.00
3142;BME280;1581;51.568;6.998;2023-08-06T06:49:15;99714.66;;;19.31;100.00
3142;BME280;1581;51.568;6.998;2023-08-06T06:51:43;99711.41;;;19.39;100.00
3142;BME280;1581;51.568;6.998;2023-08-06T06:54:10;99705.75;;;19.46;100.00
3142;BME280;1581;51.568;6.998;2023-08-06T06:56:38;99705.19;;;19.54;100.00
3142;BME280;1581;51.568;6.998;2023-08-06T06:59:06;99707.59;;;19.65;100.00
3142;BME280;1581;51.568;6.998;2023-08-06T07:01:34;99704.91;;;19.70;100.00
3142;BME280;1581;51.568;6.998;2023-08-06T07:04:04;99705.97;;;19.79;100.00
3142;BME280;1581;51.568;6.998;2023-08-06T07:06:32;99700.81;;;19.88;100.00
3142;BME280;1581;51.568;6.998;2023-08-06T07:09:00;99708.63;;;19.94;100.00
3142;BME280;1581;51.568;6.998;2023-08-06T07:11:28;99706.75;;;19.99;100.00
3142;BME280;1581;51.568;6.998;2023-08-06T07:13:57;99711.06;;;19.90;100.00
3142;BME280;1581;51.568;6.998;2023-08-06T07:16:26;99708.66;;;19.84;100.00
3142;BME280;1581;51.568;6.998;2023-08-06T07:18:54;99714.06;;;19.84;100.00
3142;BME280;1581;51.568;6.998;2023-08-06T07:21:24;99708.66;;;19.89;100.00
3142;BME280;1581;51.568;6.998;2023-08-06T07:23:51;99707.84;;;19.79;100.00
3142;BME280;1581;51.568;6.998;2023-08-06T07:26:19;99718.44;;;19.70;100.00
3142;BME280;1581;51.568;6.998;2023-08-06T07:28:47;99715.16;;;19.63;100.00
3142;BME280;1581;51.568;6.998;2023-08-06T07:31:15;99714.09;;;19.59;100.00
3142;BME280;1581;51.568;6.998;2023-08-06T07:33:43;99713.28;;;19.69;100.00
3142;BME280;1581;51.568;6.998;2023-08-06T07:36:12;99720.03;;;19.76;100.00
3142;BME280;1581;51.568;6.998;2023-08-06T07:38:42;99717.84;;;19.88;100.00
3142;BME280;1581;51.568;6.998;2023-08-06T07:41:11;99715.69;;;19.90;100.00
3142;BME280;1581;51.568;6.998;2023-08-06T07:43:39;99724.63;;;19.95;100.00
3142;BME280;1581;51.568;6.998;2023-08-06T07:46:06;99724.88;;;20.04;100.00
3142;BME280;1581;51.568;6.998;2023-08-06T07:48:34;99723.50;;;20.11;100.00
3142;BME280;1581;51.568;6.998;2023-08-06T07:51:02;99727.81;;;20.22;100.00
3142;BME280;1581;51.568;6.998;2023-08-06T07:53:29;99730.78;;;20.31;100.00
3142;BME280;1581;51.568;6.998;2023-08-06T07:55:58;99729.91;;;20.40;100.00
3142;BME280;1581;51.568;6.998;2023-08-06T07:58:28;99735.03;;;20.47;100.00
3142;BME280;1581;51.568;6.998;2023-08-06T08:00:56;99733.94;;;20.48;100.00
3142;BME280;1581;51.568;6.998;2023-08-06T08:03:24;99735.81;;;20.52;100.00
3142;BME280;1581;51.568;6.998;2023-08-06T08:05:55;99739.03;;;20.59;100.00
3142;BME280;1581;51.568;6.998;2023-08-06T08:08:25;99723.38;;;20.56;100.00
3142;BME280;1581;51.568;6.998;2023-08-06T08:10:54;99735.53;;;20.54;100.00
3142;BME280;1581;51.568;6.998;2023-08-06T08:13:26;99737.97;;;20.55;100.00
3142;BME280;1581;51.568;6.998;2023-08-06T08:15:58;99743.31;;;20.70;100.00
3142;BME280;1581;51.568;6.998;2023-08-06T08:18:27;99736.81;;;20.71;100.00
3142;BME280;1581;51.568;6.998;2023-08-06T08:20:56;99745.19;;;20.75;100.00
3142;BME280;1581;51.568;6.998;2023-08-06T08:23:23;99738.97;;;20.69;100.00
3142;BME280;1581;51.568;6.998;2023-08-06T08:25:51;99740.34;;;20.67;100.00
3142;BME280;1581;51.568;6.998;2023-08-06T08:28:21;99746.41;;;20.49;100.00
3142;BME280;1581;51.568;6.998;2023-08-06T08:30:50;99749.38;;;20.42;100.00
3142;BME280;1581;51.568;6.998;2023-08-06T08:33:18;99747.50;;;20.33;100.00
3142;BME280;1581;51.568;6.998;2023-08-06T08:35:46;99748.13;;;20.20;100.00
3142;BME280;1581;51.568;6.998;2023-08-06T08:38:14;99743.53;;;20.15;100.00
3142;BME280;1581;51.568;6.998;2023-08-06T08:40:46;99753.53;;;20.10;100.00
3142;BME280;1581;51.568;6.998;2023-08-06T08:43:15;99746.50;;;20.04;100.00
3142;BME280;1581;51.568;6.998;2023-08-06T08:45:44;99748.13;;;20.05;100.00
3142;BME280;1581;51.568;6.998;2023-08-06T08:48:18;99747.06;;;19.96;100.00
3142;BME280;1581;51.568;6.998;2023-08-06T08:50:49;99748.38;;;19.88;100.00
3142;BME280;1581;51.568;6.998;2023-08-06T08:53:17;99748.66;;;19.92;100.00
3142;BME280;1581;51.568;6.998;2023-08-06T08:55:48;99751.09;;;19.93;100.00
3142;BME280;1581;51.568;6.998;2023-08-06T08:58:18;99746.22;;;19.90;100.00
3142;BME280;1581;51.568;6.998;2023-08-06T09:00:47;99753.25;;;19.91;100.00
3142;BME280;1581;51.568;6.998;2023-08-06T09:03:17;99747.31;;;19.89;100.00
3142;BME280;1581;51.568;6.998;2023-08-06T09:05:45;99748.16;;;19.80;100.00
3142;BME280;1581;51.568;6.998;2023-08-06T09:08:20;99757.06;;;19.90;100.00
3142;BME280;1581;51.568;6.998;2023-08-06T09:10:49;99752.19;;;19.97;100.00
3142;BME280;1581;51.568;6.998;2023-08-06T09:13:18;99756.47;;;20.18;100.00
3142;BME280;1581;51.568;6.998;2023-08-06T09:15:47;99756.16;;;20.35;100.00
3142;BME280;1581;51.568;6.998;2023-08-06T09:18:25;99759.94;;;20.49;100.00
3142;BME280;1581;51.568;6.998;2023-08-06T09:20:54;99762.00;;;20.67;100.00
3142;BME280;1581;51.568;6.998;2023-08-06T09:23:28;99760.09;;;20.82;100.00
3142;BME280;1581;51.568;6.998;2023-08-06T09:25:57;99761.38;;;20.94;100.00
3142;BME280;1581;51.568;6.998;2023-08-06T09:28:25;99762.88;;;21.15;100.00
3142;BME280;1581;51.568;6.998;2023-08-06T09:31:03;99770.06;;;21.35;100.00
3142;BME280;1581;51.568;6.998;2023-08-06T09:33:32;99767.25;;;21.50;100.00
3142;BME280;1581;51.568;6.998;2023-08-06T09:36:08;99773.88;;;21.72;100.00
3142;BME280;1581;51.568;6.998;2023-08-06T09:38:39;99773.66;;;21.97;100.00
3142;BME280;1581;51.568;6.998;2023-08-06T09:41:08;99764.91;;;22.05;100.00
3142;BME280;1581;51.568;6.998;2023-08-06T09:43:42;99770.22;;;22.15;100.00
3142;BME280;1581;51.568;6.998;2023-08-06T09:46:14;99771.63;;;22.12;100.00
3142;BME280;1581;51.568;6.998;2023-08-06T09:48:46;99770.28;;;21.81;100.00
3142;BME280;1581;51.568;6.998;2023-08-06T09:51:14;99777.28;;;21.49;100.00
3142;BME280;1581;51.568;6.998;2023-08-06T09:53:42;99772.31;;;21.23;100.00
3142;BME280;1581;51.568;6.998;2023-08-06T09:56:12;99768.94;;;20.97;100.00
3142;BME280;1581;51.568;6.998;2023-08-06T09:58:41;99776.63;;;20.71;100.00
3142;BME280;1581;51.568;6.998;2023-08-06T10:01:09;99780.44;;;20.65;100.00
3142;BME280;1581;51.568;6.998;2023-08-06T10:03:39;99785.34;;;20.58;100.00
3142;BME280;1581;51.568;6.998;2023-08-06T10:06:10;99783.22;;;20.45;100.00
3142;BME280;1581;51.568;6.998;2023-08-06T10:08:40;99782.41;;;20.44;100.00
3142;BME280;1581;51.568;6.998;2023-08-06T10:11:09;99784.31;;;20.39;100.00
3142;BME280;1581;51.568;6.998;2023-08-06T10:13:39;99782.19;;;20.31;100.00
3142;BME280;1581;51.568;6.998;2023-08-06T10:16:07;99785.69;;;20.26;100.00
3142;BME280;1581;51.568;6.998;2023-08-06T10:18:36;99787.06;;;20.19;100.00
3142;BME280;1581;51.568;6.998;2023-08-06T10:21:09;99783.78;;;20.27;100.00
3142;BME280;1581;51.568;6.998;2023-08-06T10:23:40;99776.75;;;20.36;100.00
3142;BME280;1581;51.568;6.998;2023-08-06T10:26:08;99776.94;;;20.59;100.00
3142;BME280;1581;51.568;6.998;2023-08-06T10:28:37;99779.84;;;20.82;100.00
3142;BME280;1581;51.568;6.998;2023-08-06T10:31:06;99782.81;;;20.86;100.00
3142;BME280;1581;51.568;6.998;2023-08-06T10:33:44;99770.81;;;21.02;100.00
3142;BME280;1581;51.568;6.998;2023-08-06T10:36:15;99774.19;;;21.22;100.00
3142;BME280;1581;51.568;6.998;2023-08-06T10:38:47;99776.59;;;21.29;100.00
3142;BME280;1581;51.568;6.998;2023-08-06T10:41:23;99777.44;;;21.29;100.00
3142;BME280;1581;51.568;6.998;2023-08-06T10:43:51;99779.19;;;21.10;100.00
3142;BME280;1581;51.568;6.998;2023-08-06T10:46:26;99787.31;;;21.05;100.00
3142;BME280;1581;51.568;6.998;2023-08-06T10:48:54;99792.50;;;20.97;100.00
3142;BME280;1581;51.568;6.998;2023-08-06T10:51:24;99792.84;;;20.85;100.00
3142;BME280;1581;51.568;6.998;2023-08-06T10:53:52;99787.97;;;20.73;100.00
3142;BME280;1581;51.568;6.998;2023-08-06T10:56:21;99788.34;;;20.51;100.00
3142;BME280;1581;51.568;6.998;2023-08-06T10:58:54;99800.03;;;20.27;100.00
3142;BME280;1581;51.568;6.998;2023-08-06T11:01:22;99804.94;;;20.20;100.00
3142;BME280;1581;51.568;6.998;2023-08-06T11:03:51;99801.13;;;20.21;100.00
3142;BME280;1581;51.568;6.998;2023-08-06T11:06:21;99804.38;;;20.28;100.00
3142;BME280;1581;51.568;6.998;2023-08-06T11:08:51;99801.41;;;20.24;100.00
3142;BME280;1581;51.568;6.998;2023-08-06T11:11:19;99801.13;;;20.16;100.00
3142;BME280;1581;51.568;6.998;2023-08-06T11:13:49;99805.22;;;20.03;100.00
3142;BME280;1581;51.568;6.998;2023-08-06T11:16:19;99806.28;;;19.92;100.00
3142;BME280;1581;51.568;6.998;2023-08-06T11:18:46;99792.50;;;19.99;100.00
3142;BME280;1581;51.568;6.998;2023-08-06T11:21:15;99796.53;;;19.96;100.00
3142;BME280;1581;51.568;6.998;2023-08-06T11:23:45;99791.91;;;19.92;100.00
3142;BME280;1581;51.568;6.998;2023-08-06T11:26:19;99797.06;;;19.88;100.00
3142;BME280;1581;51.568;6.998;2023-08-06T11:28:47;99797.91;;;20.04;100.00
3142;BME280;1581;51.568;6.998;2023-08-06T11:31:21;99803.53;;;20.27;100.00
3142;BME280;1581;51.568;6.998;2023-08-06T11:33:50;99806.47;;;20.46;100.00
3142;BME280;1581;51.568;6.998;2023-08-06T11:36:29;99807.81;;;20.48;100.00
3142;BME280;1581;51.568;6.998;2023-08-06T11:38:58;99808.94;;;20.42;100.00
3142;BME280;1581;51.568;6.998;2023-08-06T11:41:28;99808.94;;;20.32;100.00
3142;BME280;1581;51.568;6.998;2023-08-06T11:43:56;99801.66;;;20.13;100.00
3142;BME280;1581;51.568;6.998;2023-08-06T11:46:24;99806.56;;;20.01;100.00
3142;BME280;1581;51.568;6.998;2023-08-06T11:48:53;99796.28;;;19.88;100.00
3142;BME280;1581;51.568;6.998;2023-08-06T11:51:23;99810.84;;;19.82;100.00
3142;BME280;1581;51.568;6.998;2023-08-06T11:53:55;99818.41;;;19.50;100.00
3142;BME280;1581;51.568;6.998;2023-08-06T11:56:22;99813.81;;;19.41;100.00
3142;BME280;1581;51.568;6.998;2023-08-06T11:58:53;99819.47;;;19.39;100.00
3142;BME280;1581;51.568;6.998;2023-08-06T12:01:22;99811.31;;;19.14;100.00
3142;BME280;1581;51.568;6.998;2023-08-06T12:03:50;99811.91;;;19.31;100.00
3142;BME280;1581;51.568;6.998;2023-08-06T12:06:18;99812.13;;;19.20;100.00
3142;BME280;1581;51.568;6.998;2023-08-06T12:08:46;99806.47;;;19.21;100.00
3142;BME280;1581;51.568;6.998;2023-08-06T12:11:14;99823.81;;;19.50;100.00
3142;BME280;1581;51.568;6.998;2023-08-06T12:13:42;99827.59;;;19.64;100.00
3142;BME280;1581;51.568;6.998;2023-08-06T12:16:11;99833.84;;;19.75;100.00
3142;BME280;1581;51.568;6.998;2023-08-06T12:18:40;99841.38;;;19.53;100.00
3142;BME280;1581;51.568;6.998;2023-08-06T12:21:07;99840.50;;;19.32;100.00
3142;BME280;1581;51.568;6.998;2023-08-06T12:23:39;99849.16;;;19.19;100.00
3142;BME280;1581;51.568;6.998;2023-08-06T12:26:07;99855.56;;;19.08;100.00
3142;BME280;1581;51.568;6.998;2023-08-06T12:28:36;99860.88;;;18.89;100.00
3142;BME280;1581;51.568;6.998;2023-08-06T12:31:05;99856.22;;;18.74;100.00
3142;BME280;1581;51.568;6.998;2023-08-06T12:33:34;99871.25;;;18.60;100.00
3142;BME280;1581;51.568;6.998;2023-08-06T12:36:03;99871.16;;;18.45;100.00
3142;BME280;1581;51.568;6.998;2023-08-06T12:38:30;99873.22;;;18.33;100.00
3142;BME280;1581;51.568;6.998;2023-08-06T12:40:59;99879.25;;;18.45;100.00
3142;BME280;1581;51.568;6.998;2023-08-06T12:43:28;99891.78;;;18.25;100.00
3142;BME280;1581;51.568;6.998;2023-08-06T12:45:55;99894.19;;;18.21;100.00
3142;BME280;1581;51.568;6.998;2023-08-06T12:48:23;99888.41;;;18.13;100.00
3142;BME280;1581;51.568;6.998;2023-08-06T12:50:53;99891.88;;;18.09;100.00
3142;BME280;1581;51.568;6.998;2023-08-06T12:53:20;99898.31;;;18.03;100.00
3142;BME280;1581;51.568;6.998;2023-08-06T12:55:49;99900.63;;;17.94;100.00
3142;BME280;1581;51.568;6.998;2023-08-06T12:58:17;99909.28;;;17.96;100.00
3142;BME280;1581;51.568;6.998;2023-08-06T13:00:44;99902.75;;;17.87;100.00
3142;BME280;1581;51.568;6.998;2023-08-06T13:03:12;99911.09;;;17.86;100.00
3142;BME280;1581;51.568;6.998;2023-08-06T13:05:40;99912.00;;;17.96;100.00
3142;BME280;1581;51.568;6.998;2023-08-06T13:08:09;99907.16;;;17.98;100.00
3142;BME280;1581;51.568;6.998;2023-08-06T13:10:37;99911.19;;;17.96;100.00
3142;BME280;1581;51.568;6.998;2023-08-06T13:13:04;99915.38;;;18.13;100.00
3142;BME280;1581;51.568;6.998;2023-08-06T13:15:32;99924.63;;;18.22;100.00
3142;BME280;1581;51.568;6.998;2023-08-06T13:18:00;99923.47;;;18.13;100.00